Louisbourg, Canada
Current Conditions -  °F | °C
As of 10:21 AM on Friday 24 Oct 2014 (Local Time) from CYQY Reporting Station
Light Rain Light Rain  
Wind Chill: 55°   Ceiling: 200
Heat Index: 55°   Visibility: 0.5mi
Dew Point: 55°   Wind: 12mph
Humidity: 100%   Direction: 110°ESE
Pressure: 29.66"   Gusts: 20mph
Location:  45.92°N, 59.98°W
Report Text: CYQY 241321Z 11010G17KT 1/2SM R07/4500VP6000FT/D -RA FG VV002 13/13 A2966 RMK FG8 SLP045
Loading
Personal Weather Stations






























Interactive Weather Map New forecast layout! Learn more

10-Day Weather Forecast

Advertisements
Track Severe Weather on mobile